createdAt,value
2023-04-17T00:01:20.685Z,14.09
2023-04-17T00:03:47.262Z,14.13
2023-04-17T00:06:13.475Z,14.15
2023-04-17T00:08:39.885Z,14.12
2023-04-17T00:11:08.523Z,14.13
2023-04-17T00:13:32.740Z,14.14
2023-04-17T00:15:59.107Z,14.14
2023-04-17T00:18:25.541Z,14.10
2023-04-17T00:20:51.901Z,14.07
2023-04-17T00:23:18.319Z,14.09
2023-04-17T00:25:44.773Z,14.10
2023-04-17T00:28:11.143Z,14.09
2023-04-17T00:30:37.565Z,14.06
2023-04-17T00:33:03.960Z,14.06
2023-04-17T00:35:30.315Z,14.04
2023-04-17T00:37:56.738Z,14.02
2023-04-17T00:40:23.150Z,14.01
2023-04-17T00:42:49.587Z,14.00
2023-04-17T00:45:15.998Z,13.94
2023-04-17T00:47:42.456Z,13.87
2023-04-17T00:50:08.896Z,13.81
2023-04-17T00:52:35.255Z,13.81
2023-04-17T00:55:01.708Z,13.84
2023-04-17T00:57:28.109Z,13.87
2023-04-17T00:59:54.498Z,13.82
2023-04-17T01:02:20.941Z,13.76
2023-04-17T01:04:47.256Z,13.77
2023-04-17T01:07:13.634Z,13.74
2023-04-17T01:09:40.031Z,13.74
2023-04-17T01:12:06.392Z,13.74
2023-04-17T01:14:32.778Z,13.72
2023-04-17T01:16:59.225Z,13.71
2023-04-17T01:19:25.620Z,13.68
2023-04-17T01:21:52.025Z,13.67
2023-04-17T01:24:18.450Z,13.67
2023-04-17T01:26:44.816Z,13.68
2023-04-17T01:29:11.335Z,13.66
2023-04-17T01:31:37.615Z,13.63
2023-04-17T01:34:03.987Z,13.61
2023-04-17T01:36:30.387Z,13.60
2023-04-17T01:38:56.748Z,13.59
2023-04-17T01:41:23.159Z,13.60
2023-04-17T01:43:49.563Z,13.56
2023-04-17T01:46:16.004Z,13.54
2023-04-17T01:48:42.324Z,13.53
2023-04-17T01:51:08.754Z,13.55
2023-04-17T01:53:35.153Z,13.58
2023-04-17T01:56:01.557Z,13.58
2023-04-17T01:58:27.974Z,13.58
2023-04-17T02:00:54.355Z,13.57
2023-04-17T02:03:20.917Z,13.57
2023-04-17T02:05:47.149Z,13.58
2023-04-17T02:08:13.565Z,13.58
2023-04-17T02:10:39.990Z,13.57
2023-04-17T02:13:06.360Z,13.55
2023-04-17T02:15:32.837Z,13.53
2023-04-17T02:17:59.231Z,13.54
2023-04-17T02:20:25.604Z,13.55
2023-04-17T02:22:52.025Z,13.54
2023-04-17T02:25:18.428Z,13.53
2023-04-17T02:27:44.839Z,13.55
2023-04-17T02:30:11.239Z,13.54
2023-04-17T02:32:37.729Z,13.52
2023-04-17T02:35:04.042Z,13.55
2023-04-17T02:37:30.432Z,13.56
2023-04-17T02:39:56.803Z,13.54
2023-04-17T02:42:23.192Z,13.55
2023-04-17T02:44:49.570Z,13.56
2023-04-17T02:47:15.990Z,13.56
2023-04-17T02:49:42.419Z,13.54
2023-04-17T02:52:08.826Z,13.49
2023-04-17T02:54:35.235Z,13.49
2023-04-17T02:57:01.670Z,13.48
2023-04-17T02:59:28.035Z,13.48
2023-04-17T03:01:54.535Z,13.45
2023-04-17T03:04:20.988Z,13.42
2023-04-17T03:06:47.325Z,13.41
2023-04-17T03:09:13.884Z,13.40
2023-04-17T03:11:40.189Z,13.39
2023-04-17T03:14:06.551Z,13.38
2023-04-17T03:16:32.992Z,13.38
2023-04-17T03:18:59.339Z,13.36
2023-04-17T03:21:25.772Z,13.33
2023-04-17T03:23:52.132Z,13.32
2023-04-17T03:26:18.603Z,13.32
2023-04-17T03:28:44.958Z,13.26
2023-04-17T03:31:11.381Z,13.22
2023-04-17T03:33:37.740Z,13.19
2023-04-17T03:36:04.116Z,13.19
2023-04-17T03:38:30.547Z,13.19
2023-04-17T03:40:56.955Z,13.19
2023-04-17T03:43:23.334Z,13.20
2023-04-17T03:45:49.813Z,13.20
2023-04-17T03:48:16.169Z,13.20
2023-04-17T03:50:42.577Z,13.23
2023-04-17T03:53:09.023Z,13.23
2023-04-17T03:55:35.410Z,13.22
2023-04-17T03:58:01.819Z,13.23
2023-04-17T04:00:28.234Z,13.23
2023-04-17T04:02:54.733Z,13.24
2023-04-17T04:05:21.076Z,13.22
2023-04-17T04:07:47.421Z,13.19
2023-04-17T04:10:13.823Z,13.18
2023-04-17T04:12:40.197Z,13.20
2023-04-17T04:15:06.572Z,13.19
2023-04-17T04:17:32.956Z,13.14
2023-04-17T04:19:59.379Z,13.10
2023-04-17T04:22:25.764Z,13.11
2023-04-17T04:24:52.181Z,13.09
2023-04-17T04:27:18.576Z,13.07
2023-04-17T04:29:44.941Z,13.06
2023-04-17T04:32:11.368Z,13.06
2023-04-17T04:34:37.847Z,13.06
2023-04-17T04:37:04.207Z,13.03
2023-04-17T04:39:30.633Z,13.07
2023-04-17T04:41:57.052Z,13.07
2023-04-17T04:44:23.486Z,13.10
2023-04-17T04:46:50.067Z,13.07
2023-04-17T04:49:16.362Z,13.04
2023-04-17T04:51:42.773Z,13.05
2023-04-17T04:54:09.140Z,13.05
2023-04-17T04:56:35.558Z,13.04
2023-04-17T04:59:01.946Z,13.03
2023-04-17T05:01:28.425Z,13.02
2023-04-17T05:03:54.979Z,13.00
2023-04-17T05:06:21.322Z,12.96
2023-04-17T05:08:47.731Z,12.97
2023-04-17T05:11:14.101Z,12.98
2023-04-17T05:13:40.470Z,12.97
2023-04-17T05:16:06.917Z,12.98
2023-04-17T05:18:33.254Z,13.05
2023-04-17T05:20:59.640Z,13.09
2023-04-17T05:23:26.053Z,13.12
2023-04-17T05:25:52.469Z,13.11
2023-04-17T05:28:18.848Z,13.13
2023-04-17T05:30:45.304Z,13.18
2023-04-17T05:33:11.767Z,13.19
2023-04-17T05:35:38.107Z,13.18
2023-04-17T05:38:04.586Z,13.20
2023-04-17T05:40:31.007Z,13.19
2023-04-17T05:42:57.384Z,13.19
2023-04-17T05:45:25.517Z,13.19
2023-04-17T05:47:50.431Z,13.22
2023-04-17T05:50:16.807Z,13.26
2023-04-17T05:52:43.235Z,13.27
2023-04-17T05:55:09.647Z,13.29
2023-04-17T05:57:36.090Z,13.31
2023-04-17T06:00:02.467Z,13.34
2023-04-17T06:02:28.995Z,13.40
2023-04-17T06:04:55.447Z,13.42
2023-04-17T06:07:21.762Z,13.44
2023-04-17T06:09:48.134Z,13.46
2023-04-17T06:12:14.549Z,13.50
2023-04-17T06:14:40.928Z,13.54
2023-04-17T06:17:07.428Z,13.56
2023-04-17T06:19:33.752Z,13.56
2023-04-17T06:22:00.190Z,13.55
2023-04-17T06:24:26.611Z,13.54
2023-04-17T06:26:59.377Z,13.51
2023-04-17T06:29:26.957Z,13.51
2023-04-17T06:31:54.637Z,13.53
2023-04-17T06:34:21.064Z,13.56
2023-04-17T06:36:47.422Z,13.59
2023-04-17T06:39:16.471Z,13.58
2023-04-17T06:41:45.221Z,13.60
2023-04-17T06:44:11.605Z,13.63
2023-04-17T06:46:38.111Z,13.67
2023-04-17T06:49:04.496Z,13.72
2023-04-17T06:51:31.062Z,13.76
2023-04-17T06:53:57.526Z,13.82
2023-04-17T06:56:24.064Z,13.88
2023-04-17T06:58:50.470Z,13.95
2023-04-17T07:01:16.868Z,14.01
2023-04-17T07:03:43.616Z,14.09
2023-04-17T07:06:09.815Z,14.13
2023-04-17T07:08:36.172Z,14.19
2023-04-17T07:11:02.554Z,14.26
2023-04-17T07:13:28.960Z,14.34
2023-04-17T07:15:55.466Z,14.37
2023-04-17T07:18:21.874Z,14.41
2023-04-17T07:20:48.307Z,14.45
2023-04-17T07:23:14.743Z,14.52
2023-04-17T07:25:41.091Z,14.58
2023-04-17T07:28:07.612Z,14.66
2023-04-17T07:30:33.987Z,14.76
2023-04-17T07:33:00.402Z,14.83
2023-04-17T07:35:26.865Z,14.86
2023-04-17T07:37:53.283Z,14.92
2023-04-17T07:40:19.692Z,14.92
2023-04-17T07:42:46.184Z,14.93
2023-04-17T07:45:12.561Z,14.94
2023-04-17T07:47:41.157Z,14.96
2023-04-17T07:50:07.569Z,15.00
2023-04-17T07:52:33.966Z,15.01
2023-04-17T07:55:00.342Z,15.01
2023-04-17T07:57:26.838Z,14.99
2023-04-17T07:59:53.225Z,14.98
2023-04-17T08:02:20.691Z,14.99
2023-04-17T08:04:46.126Z,15.00
2023-04-17T08:07:12.392Z,15.01
2023-04-17T08:09:39.112Z,15.06
2023-04-17T08:12:05.539Z,15.13
2023-04-17T08:14:32.261Z,15.22
2023-04-17T08:16:58.700Z,15.30
2023-04-17T08:19:25.083Z,15.30
2023-04-17T08:21:51.505Z,15.32
2023-04-17T08:24:19.793Z,15.29
2023-04-17T08:26:44.362Z,15.24
2023-04-17T08:29:10.986Z,15.21
2023-04-17T08:31:37.175Z,15.26
2023-04-17T08:34:13.635Z,15.32
2023-04-17T08:36:32.927Z,15.27
2023-04-17T08:38:59.374Z,15.24
2023-04-17T08:41:25.742Z,15.25
2023-04-17T08:43:52.120Z,15.26
2023-04-17T08:46:18.685Z,15.28
2023-04-17T08:48:45.037Z,15.32
2023-04-17T08:51:11.470Z,15.37
2023-04-17T08:53:38.046Z,15.44
2023-04-17T08:56:06.255Z,15.48
2023-04-17T08:58:31.023Z,15.47
2023-04-17T09:00:57.468Z,15.48
2023-04-17T09:03:24.371Z,15.49
2023-04-17T09:05:50.491Z,15.54
2023-04-17T09:08:16.882Z,15.52
2023-04-17T09:10:43.349Z,15.58
2023-04-17T09:13:09.985Z,15.59
2023-04-17T09:15:36.517Z,15.59
2023-04-17T09:18:02.807Z,15.62
2023-04-17T09:20:29.400Z,15.89
2023-04-17T09:22:55.956Z,16.29
2023-04-17T09:25:22.367Z,16.56
2023-04-17T09:27:48.744Z,16.76
2023-04-17T09:30:15.237Z,16.82
2023-04-17T09:32:41.614Z,16.53
2023-04-17T09:35:07.958Z,16.20
2023-04-17T09:37:35.440Z,16.02
2023-04-17T09:40:01.889Z,15.89
2023-04-17T09:42:28.474Z,15.76
2023-04-17T09:44:54.839Z,15.61
2023-04-17T09:47:21.311Z,15.49
2023-04-17T09:49:49.830Z,15.44
2023-04-17T09:52:16.314Z,15.40
2023-04-17T09:54:42.711Z,15.42
2023-04-17T09:57:09.173Z,15.47
2023-04-17T09:59:35.813Z,15.51
2023-04-17T10:02:02.373Z,15.57
2023-04-17T10:04:28.638Z,15.66
2023-04-17T10:06:54.970Z,15.73
2023-04-17T10:09:21.816Z,15.76
2023-04-17T10:11:48.284Z,15.79
2023-04-17T10:14:14.970Z,15.86
2023-04-17T10:16:43.578Z,16.00
2023-04-17T10:19:09.860Z,16.17
2023-04-17T10:21:36.229Z,16.30
2023-04-17T10:24:03.108Z,16.40
2023-04-17T10:26:29.698Z,16.43
2023-04-17T10:28:56.156Z,16.44
2023-04-17T10:31:22.734Z,16.46
2023-04-17T10:33:49.090Z,16.40
2023-04-17T10:36:15.803Z,16.35
2023-04-17T10:38:43.345Z,16.38
2023-04-17T10:41:09.814Z,16.46
2023-04-17T10:43:36.546Z,16.58
2023-04-17T10:46:03.017Z,16.79
2023-04-17T10:48:29.631Z,16.91
2023-04-17T10:50:56.057Z,16.91
2023-04-17T10:53:22.560Z,16.84
2023-04-17T10:55:48.938Z,16.73
2023-04-17T10:58:15.560Z,16.75
2023-04-17T11:00:41.964Z,16.72
2023-04-17T11:03:08.655Z,16.63
2023-04-17T11:05:34.955Z,16.45
2023-04-17T11:08:01.697Z,16.24
2023-04-17T11:10:28.189Z,16.07
2023-04-17T11:12:54.660Z,15.95
2023-04-17T11:15:21.062Z,15.87
2023-04-17T11:17:47.648Z,15.85
2023-04-17T11:20:13.964Z,15.82
2023-04-17T11:22:40.476Z,15.74
2023-04-17T11:25:06.886Z,15.72
2023-04-17T11:27:33.234Z,15.69
2023-04-17T11:29:59.604Z,15.67
2023-04-17T11:32:26.008Z,15.64
2023-04-17T11:34:52.403Z,15.62
2023-04-17T11:37:18.969Z,15.56
2023-04-17T11:39:45.526Z,15.53
2023-04-17T11:42:11.911Z,15.52
2023-04-17T11:44:38.266Z,15.51
2023-04-17T11:47:04.652Z,15.45
2023-04-17T11:49:31.060Z,15.42
2023-04-17T11:52:00.561Z,15.46
2023-04-17T11:54:27.100Z,15.45
2023-04-17T11:56:53.803Z,15.47
2023-04-17T11:59:20.195Z,15.55
2023-04-17T12:01:46.617Z,15.61
2023-04-17T12:04:13.272Z,15.67
2023-04-17T12:06:39.522Z,15.72
2023-04-17T12:09:05.919Z,15.80
2023-04-17T12:11:32.281Z,15.87
2023-04-17T12:13:58.716Z,15.91
2023-04-17T12:16:25.177Z,15.89
2023-04-17T12:18:51.481Z,15.86
2023-04-17T12:21:17.958Z,15.86
2023-04-17T12:23:44.309Z,15.85
2023-04-17T12:26:10.711Z,15.80
2023-04-17T12:28:37.135Z,15.80
2023-04-17T12:31:03.527Z,15.80
2023-04-17T12:33:29.885Z,15.82
2023-04-17T12:35:56.287Z,15.83
2023-04-17T12:38:22.704Z,15.85
2023-04-17T12:40:49.116Z,15.82
2023-04-17T12:43:15.548Z,15.80
2023-04-17T12:45:42.536Z,15.74
2023-04-17T12:48:08.323Z,15.72
2023-04-17T12:50:36.899Z,15.69
2023-04-17T12:53:03.310Z,15.66
2023-04-17T12:55:29.714Z,15.66
2023-04-17T12:57:56.086Z,15.72
2023-04-17T13:00:22.458Z,15.71
2023-04-17T13:02:49.027Z,15.72
2023-04-17T13:05:15.293Z,15.74
2023-04-17T13:07:41.715Z,15.75
2023-04-17T13:10:08.135Z,15.75
2023-04-17T13:12:34.799Z,15.75
2023-04-17T13:15:01.219Z,15.77
2023-04-17T13:17:27.680Z,15.75
2023-04-17T13:19:54.122Z,15.78
2023-04-17T13:22:20.542Z,15.80
2023-04-17T13:24:47.051Z,15.84
2023-04-17T13:27:13.482Z,15.90
2023-04-17T13:29:40.007Z,15.93
2023-04-17T13:32:06.452Z,15.92
2023-04-17T13:34:32.821Z,15.94
2023-04-17T13:36:59.249Z,15.95
2023-04-17T13:39:25.765Z,15.97
2023-04-17T13:41:52.128Z,15.96
2023-04-17T13:44:18.556Z,16.00
2023-04-17T13:46:45.311Z,16.00
2023-04-17T13:49:11.938Z,15.99
2023-04-17T13:51:37.977Z,15.94
2023-04-17T13:54:04.413Z,15.91
2023-04-17T13:56:31.246Z,15.85
2023-04-17T13:58:57.684Z,15.81
2023-04-17T14:01:24.065Z,15.85
2023-04-17T14:03:50.579Z,15.90
2023-04-17T14:06:16.921Z,15.89
2023-04-17T14:08:44.361Z,15.94
2023-04-17T14:11:09.714Z,15.97
2023-04-17T14:13:36.142Z,15.96
2023-04-17T14:16:02.647Z,15.96
2023-04-17T14:18:29.048Z,15.96
2023-04-17T14:20:55.546Z,15.98
2023-04-17T14:23:21.986Z,15.99
2023-04-17T14:25:48.421Z,15.98
2023-04-17T14:28:14.905Z,15.98
2023-04-17T14:30:41.371Z,16.01
2023-04-17T14:33:07.760Z,16.01
2023-04-17T14:35:34.281Z,16.00
2023-04-17T14:38:00.807Z,15.97
2023-04-17T14:40:27.259Z,15.93
2023-04-17T14:42:54.832Z,15.95
2023-04-17T14:45:20.164Z,15.95
2023-04-17T14:47:46.658Z,15.94
2023-04-17T14:50:12.988Z,15.93
2023-04-17T14:52:40.376Z,15.91
2023-04-17T14:55:06.803Z,15.86
2023-04-17T14:57:33.651Z,15.86
2023-04-17T15:00:00.405Z,15.83
2023-04-17T15:02:26.712Z,15.82
2023-04-17T15:04:52.985Z,15.81
2023-04-17T15:07:21.683Z,15.82
2023-04-17T15:09:48.107Z,15.84
2023-04-17T15:12:16.933Z,15.89
2023-04-17T15:14:43.317Z,15.89
2023-04-17T15:17:09.757Z,15.83
2023-04-17T15:19:36.683Z,15.80
2023-04-17T15:22:03.181Z,15.81
2023-04-17T15:24:29.497Z,15.83
2023-04-17T15:26:55.908Z,15.84
2023-04-17T15:29:22.454Z,15.81
2023-04-17T15:31:48.915Z,15.78
2023-04-17T15:34:15.263Z,15.77
2023-04-17T15:36:41.688Z,15.72
2023-04-17T15:39:08.115Z,15.71
2023-04-17T15:41:34.467Z,15.70
2023-04-17T15:44:00.937Z,15.65
2023-04-17T15:46:27.408Z,15.64
2023-04-17T15:49:07.468Z,15.62
2023-04-17T15:51:20.660Z,15.55
2023-04-17T15:53:47.038Z,15.51
2023-04-17T15:56:13.426Z,15.49
2023-04-17T15:58:40.013Z,15.48
2023-04-17T16:01:06.462Z,15.49
2023-04-17T16:03:32.913Z,15.47
2023-04-17T16:05:59.364Z,15.47
2023-04-17T16:08:25.778Z,15.48
2023-04-17T16:10:52.185Z,15.46
2023-04-17T16:13:18.753Z,15.41
2023-04-17T16:15:45.242Z,15.39
2023-04-17T16:18:13.716Z,15.40
2023-04-17T16:20:40.092Z,15.40
2023-04-17T16:23:06.460Z,15.44
2023-04-17T16:25:33.393Z,15.41
2023-04-17T16:27:59.734Z,15.37
2023-04-17T16:30:26.168Z,15.34
2023-04-17T16:32:52.661Z,15.32
2023-04-17T16:35:18.964Z,15.32
2023-04-17T16:37:45.409Z,15.29
2023-04-17T16:40:11.791Z,15.24
2023-04-17T16:42:38.154Z,15.18
2023-04-17T16:45:04.526Z,15.18
2023-04-17T16:47:31.131Z,15.16
2023-04-17T16:49:57.455Z,15.15
2023-04-17T16:52:24.594Z,15.14
2023-04-17T16:54:51.067Z,15.14
2023-04-17T16:57:17.464Z,15.12
2023-04-17T16:59:43.840Z,15.10
2023-04-17T17:02:10.487Z,15.12
2023-04-17T17:04:36.850Z,15.21
2023-04-17T17:07:03.279Z,15.24
2023-04-17T17:09:29.653Z,15.19
2023-04-17T17:11:56.071Z,15.13
2023-04-17T17:14:22.566Z,15.10
2023-04-17T17:16:49.207Z,15.02
2023-04-17T17:19:15.568Z,14.97
2023-04-17T17:21:42.035Z,14.93
2023-04-17T17:24:08.397Z,14.94
2023-04-17T17:26:34.904Z,14.87
2023-04-17T17:29:01.325Z,14.79
2023-04-17T17:31:27.776Z,14.74
2023-04-17T17:33:54.119Z,14.69
2023-04-17T17:36:20.579Z,14.69
2023-04-17T17:38:46.887Z,14.67
2023-04-17T17:41:13.332Z,14.64
2023-04-17T17:43:39.748Z,14.59
2023-04-17T17:46:06.240Z,14.54
2023-04-17T17:48:32.594Z,14.52
2023-04-17T17:50:58.973Z,14.50
2023-04-17T17:53:27.129Z,14.47
2023-04-17T17:55:51.927Z,14.45
2023-04-17T17:58:18.416Z,14.42
2023-04-17T18:00:44.884Z,14.41
2023-04-17T18:03:11.740Z,14.38
2023-04-17T18:05:38.202Z,14.38
2023-04-17T18:08:04.607Z,14.38
2023-04-17T18:10:30.952Z,14.37
2023-04-17T18:12:57.491Z,14.35
2023-04-17T18:15:23.912Z,14.33
2023-04-17T18:17:50.323Z,14.33
2023-04-17T18:20:16.760Z,14.32
2023-04-17T18:22:43.116Z,14.31
2023-04-17T18:25:09.513Z,14.30
2023-04-17T18:27:35.918Z,14.30
2023-04-17T18:30:02.335Z,14.29
2023-04-17T18:32:28.816Z,14.30
2023-04-17T18:34:55.228Z,14.32
2023-04-17T18:37:21.590Z,14.32
2023-04-17T18:39:48.496Z,14.33
2023-04-17T18:42:14.914Z,14.32
2023-04-17T18:44:41.318Z,14.29
2023-04-17T18:47:07.808Z,14.24
2023-04-17T18:49:34.228Z,14.22
2023-04-17T18:52:02.420Z,14.21
2023-04-17T18:54:28.839Z,14.21
2023-04-17T18:56:55.223Z,14.20
2023-04-17T18:59:21.913Z,14.17
2023-04-17T19:01:48.269Z,14.13
2023-04-17T19:04:14.891Z,14.13
2023-04-17T19:06:41.158Z,14.13
2023-04-17T19:09:07.534Z,14.11
2023-04-17T19:11:33.897Z,14.09
2023-04-17T19:14:00.327Z,14.04
2023-04-17T19:16:26.783Z,14.04
2023-04-17T19:18:53.139Z,14.03
2023-04-17T19:21:19.878Z,14.01
2023-04-17T19:23:46.320Z,14.00
2023-04-17T19:26:12.739Z,14.03
2023-04-17T19:28:39.164Z,14.00
2023-04-17T19:31:08.021Z,13.97
2023-04-17T19:33:35.448Z,13.99
2023-04-17T19:36:01.810Z,14.01
2023-04-17T19:38:28.220Z,14.03
2023-04-17T19:40:54.615Z,14.02
2023-04-17T19:43:21.142Z,13.98
2023-04-17T19:45:47.506Z,13.96
2023-04-17T19:48:13.831Z,13.96
2023-04-17T19:50:40.274Z,13.94
2023-04-17T19:53:06.645Z,13.94
2023-04-17T19:55:33.068Z,13.96
2023-04-17T19:57:59.457Z,13.92
2023-04-17T20:00:25.828Z,13.94
2023-04-17T20:02:52.330Z,13.95
2023-04-17T20:05:18.657Z,13.95
2023-04-17T20:07:45.074Z,13.91
2023-04-17T20:10:11.456Z,13.88
2023-04-17T20:12:38.852Z,13.85
2023-04-17T20:15:05.226Z,13.86
2023-04-17T20:17:31.633Z,13.82
2023-04-17T20:19:57.986Z,13.80
2023-04-17T20:22:24.358Z,13.82
2023-04-17T20:24:50.830Z,13.85
2023-04-17T20:27:17.194Z,13.86
2023-04-17T20:29:43.526Z,13.88
2023-04-17T20:32:09.935Z,13.88
2023-04-17T20:34:36.333Z,13.86
2023-04-17T20:37:02.714Z,13.85
2023-04-17T20:39:29.102Z,13.84
2023-04-17T20:41:55.495Z,13.84
2023-04-17T20:44:21.999Z,13.83
2023-04-17T20:46:48.429Z,13.83
2023-04-17T20:49:14.860Z,13.83
2023-04-17T20:51:41.193Z,13.82
2023-04-17T20:54:07.556Z,13.80
2023-04-17T20:56:33.929Z,13.79
2023-04-17T20:59:00.362Z,13.78
2023-04-17T21:01:26.805Z,13.79
2023-04-17T21:03:53.291Z,13.82
2023-04-17T21:06:19.585Z,13.83
2023-04-17T21:08:45.976Z,13.82
2023-04-17T21:11:12.366Z,13.81
2023-04-17T21:13:39.006Z,13.78
2023-04-17T21:16:05.463Z,13.75
2023-04-17T21:18:33.321Z,13.75
2023-04-17T21:20:59.844Z,13.76
2023-04-17T21:23:26.216Z,13.73
2023-04-17T21:25:52.649Z,13.71
2023-04-17T21:28:19.043Z,13.71
2023-04-17T21:30:45.414Z,13.72
2023-04-17T21:33:11.831Z,13.71
2023-04-17T21:35:38.240Z,13.70
2023-04-17T21:38:04.652Z,13.68
2023-04-17T21:40:33.494Z,13.69
2023-04-17T21:42:58.496Z,13.70
2023-04-17T21:45:25.014Z,13.71
2023-04-17T21:47:51.394Z,13.73
2023-04-17T21:50:17.775Z,13.72
2023-04-17T21:52:44.325Z,13.70
2023-04-17T21:55:10.734Z,13.69
2023-04-17T21:57:37.098Z,13.70
2023-04-17T22:00:03.473Z,13.69
2023-04-17T22:02:29.908Z,13.69
2023-04-17T22:04:56.356Z,13.68
2023-04-17T22:07:23.000Z,13.65
2023-04-17T22:09:49.411Z,13.66
2023-04-17T22:12:15.817Z,13.64
2023-04-17T22:14:42.240Z,13.64
2023-04-17T22:17:08.629Z,13.65
2023-04-17T22:19:36.567Z,13.67
2023-04-17T22:22:02.981Z,13.64
2023-04-17T22:24:29.405Z,13.61
2023-04-17T22:26:55.757Z,13.60
2023-04-17T22:29:22.171Z,13.59
2023-04-17T22:31:48.536Z,13.57
2023-04-17T22:34:15.131Z,13.56
2023-04-17T22:36:41.399Z,13.57
2023-04-17T22:39:07.767Z,13.56
2023-04-17T22:41:34.134Z,13.55
2023-04-17T22:44:00.511Z,13.56
2023-04-17T22:46:26.911Z,13.56
2023-04-17T22:48:53.252Z,13.56
2023-04-17T22:51:19.613Z,13.55
2023-04-17T22:53:46.012Z,13.53
2023-04-17T22:56:12.422Z,13.53
2023-04-17T22:58:38.839Z,13.52
2023-04-17T23:01:05.252Z,13.50
2023-04-17T23:03:31.634Z,13.51
2023-04-17T23:05:58.009Z,13.51
2023-04-17T23:08:24.480Z,13.50
2023-04-17T23:10:50.886Z,13.51
2023-04-17T23:13:17.325Z,13.52
2023-04-17T23:15:43.808Z,13.53
2023-04-17T23:18:10.198Z,13.52
2023-04-17T23:20:36.528Z,13.50
2023-04-17T23:23:03.014Z,13.49
2023-04-17T23:25:29.406Z,13.47
2023-04-17T23:27:55.772Z,13.47
2023-04-17T23:30:22.188Z,13.46
2023-04-17T23:32:48.720Z,13.47
2023-04-17T23:35:15.051Z,13.48
2023-04-17T23:37:41.484Z,13.44
2023-04-17T23:40:07.915Z,13.42
2023-04-17T23:42:34.300Z,13.41
2023-04-17T23:45:00.657Z,13.39
2023-04-17T23:47:27.107Z,13.38
2023-04-17T23:49:55.725Z,13.37
2023-04-17T23:52:22.142Z,13.37
2023-04-17T23:54:49.627Z,13.38
2023-04-17T23:57:16.052Z,13.40
2023-04-17T23:59:42.412Z,13.41
